sensor_id;sensor_type;location;lat;lon;timestamp;P1;durP1;ratioP1;P2;durP2;ratioP2
16246;SDS011;8231;50.866;7.944;2022-08-19T00:01:27;30.30;;;23.92;;
16246;SDS011;8231;50.866;7.944;2022-08-19T00:03:56;30.42;;;24.27;;
16246;SDS011;8231;50.866;7.944;2022-08-19T00:06:25;32.33;;;25.60;;
16246;SDS011;8231;50.866;7.944;2022-08-19T00:08:56;37.08;;;33.15;;
16246;SDS011;8231;50.866;7.944;2022-08-19T00:11:26;37.30;;;33.45;;
16246;SDS011;8231;50.866;7.944;2022-08-19T00:13:55;35.55;;;31.92;;
16246;SDS011;8231;50.866;7.944;2022-08-19T00:16:24;37.38;;;33.55;;
16246;SDS011;8231;50.866;7.944;2022-08-19T00:18:53;37.67;;;31.42;;
16246;SDS011;8231;50.866;7.944;2022-08-19T00:21:22;29.48;;;24.52;;
16246;SDS011;8231;50.866;7.944;2022-08-19T00:23:51;30.42;;;22.83;;
16246;SDS011;8231;50.866;7.944;2022-08-19T00:26:21;27.75;;;23.35;;
16246;SDS011;8231;50.866;7.944;2022-08-19T00:28:49;30.05;;;24.08;;
16246;SDS011;8231;50.866;7.944;2022-08-19T00:31:17;29.17;;;24.08;;
16246;SDS011;8231;50.866;7.944;2022-08-19T00:33:45;29.15;;;24.73;;
16246;SDS011;8231;50.866;7.944;2022-08-19T00:36:14;29.77;;;24.50;;
16246;SDS011;8231;50.866;7.944;2022-08-19T00:38:42;34.05;;;30.60;;
16246;SDS011;8231;50.866;7.944;2022-08-19T00:41:12;31.60;;;25.13;;
16246;SDS011;8231;50.866;7.944;2022-08-19T00:43:49;33.00;;;25.90;;
16246;SDS011;8231;50.866;7.944;2022-08-19T00:46:24;31.00;;;23.08;;
16246;SDS011;8231;50.866;7.944;2022-08-19T00:48:53;27.88;;;22.90;;
16246;SDS011;8231;50.866;7.944;2022-08-19T00:51:23;34.90;;;23.85;;
16246;SDS011;8231;50.866;7.944;2022-08-19T00:53:53;32.08;;;25.70;;
16246;SDS011;8231;50.866;7.944;2022-08-19T00:56:22;32.85;;;24.38;;
16246;SDS011;8231;50.866;7.944;2022-08-19T00:58:54;29.27;;;22.98;;
16246;SDS011;8231;50.866;7.944;2022-08-19T01:01:23;27.33;;;22.30;;
16246;SDS011;8231;50.866;7.944;2022-08-19T01:03:52;26.80;;;22.27;;
16246;SDS011;8231;50.866;7.944;2022-08-19T01:06:24;33.35;;;30.15;;
16246;SDS011;8231;50.866;7.944;2022-08-19T01:08:53;33.90;;;30.55;;
16246;SDS011;8231;50.866;7.944;2022-08-19T01:11:21;31.33;;;28.10;;
16246;SDS011;8231;50.866;7.944;2022-08-19T01:13:50;32.53;;;29.05;;
16246;SDS011;8231;50.866;7.944;2022-08-19T01:16:22;30.92;;;27.63;;
16246;SDS011;8231;50.866;7.944;2022-08-19T01:18:54;34.05;;;30.45;;
16246;SDS011;8231;50.866;7.944;2022-08-19T01:21:24;34.78;;;31.17;;
16246;SDS011;8231;50.866;7.944;2022-08-19T01:23:58;32.55;;;29.15;;
16246;SDS011;8231;50.866;7.944;2022-08-19T01:26:26;30.92;;;27.75;;
16246;SDS011;8231;50.866;7.944;2022-08-19T01:28:57;29.92;;;26.98;;
16246;SDS011;8231;50.866;7.944;2022-08-19T01:31:28;32.47;;;29.08;;
16246;SDS011;8231;50.866;7.944;2022-08-19T01:33:58;31.75;;;28.55;;
16246;SDS011;8231;50.866;7.944;2022-08-19T01:36:29;33.03;;;29.52;;
16246;SDS011;8231;50.866;7.944;2022-08-19T01:39:01;27.92;;;22.65;;
16246;SDS011;8231;50.866;7.944;2022-08-19T01:41:31;26.50;;;21.88;;
16246;SDS011;8231;50.866;7.944;2022-08-19T01:44:00;32.08;;;28.80;;
16246;SDS011;8231;50.866;7.944;2022-08-19T01:46:45;34.75;;;31.13;;
16246;SDS011;8231;50.866;7.944;2022-08-19T01:49:15;32.42;;;29.20;;
16246;SDS011;8231;50.866;7.944;2022-08-19T01:51:44;35.20;;;31.42;;
16246;SDS011;8231;50.866;7.944;2022-08-19T01:54:14;33.78;;;30.25;;
16246;SDS011;8231;50.866;7.944;2022-08-19T01:56:55;33.28;;;29.83;;
16246;SDS011;8231;50.866;7.944;2022-08-19T01:59:26;32.75;;;29.45;;
16246;SDS011;8231;50.866;7.944;2022-08-19T02:01:55;32.05;;;28.92;;
16246;SDS011;8231;50.866;7.944;2022-08-19T02:04:23;33.38;;;29.80;;
16246;SDS011;8231;50.866;7.944;2022-08-19T02:06:52;28.02;;;22.33;;
16246;SDS011;8231;50.866;7.944;2022-08-19T02:09:21;29.67;;;22.55;;
16246;SDS011;8231;50.866;7.944;2022-08-19T02:11:49;27.77;;;21.65;;
16246;SDS011;8231;50.866;7.944;2022-08-19T02:14:18;24.85;;;20.63;;
16246;SDS011;8231;50.866;7.944;2022-08-19T02:16:46;32.03;;;28.77;;
16246;SDS011;8231;50.866;7.944;2022-08-19T02:19:14;29.58;;;26.58;;
16246;SDS011;8231;50.866;7.944;2022-08-19T02:21:42;31.30;;;28.02;;
16246;SDS011;8231;50.866;7.944;2022-08-19T02:24:10;28.45;;;21.38;;
16246;SDS011;8231;50.866;7.944;2022-08-19T02:26:40;29.35;;;21.88;;
16246;SDS011;8231;50.866;7.944;2022-08-19T02:29:09;29.05;;;22.10;;
16246;SDS011;8231;50.866;7.944;2022-08-19T02:31:37;27.40;;;21.80;;
16246;SDS011;8231;50.866;7.944;2022-08-19T02:34:05;29.80;;;22.83;;
16246;SDS011;8231;50.866;7.944;2022-08-19T02:36:33;26.77;;;21.92;;
16246;SDS011;8231;50.866;7.944;2022-08-19T02:39:08;26.90;;;20.33;;
16246;SDS011;8231;50.866;7.944;2022-08-19T02:41:35;26.75;;;21.00;;
16246;SDS011;8231;50.866;7.944;2022-08-19T02:44:04;27.67;;;22.08;;
16246;SDS011;8231;50.866;7.944;2022-08-19T02:46:52;28.10;;;21.23;;
16246;SDS011;8231;50.866;7.944;2022-08-19T02:49:21;30.70;;;22.35;;
16246;SDS011;8231;50.866;7.944;2022-08-19T02:51:49;30.00;;;22.60;;
16246;SDS011;8231;50.866;7.944;2022-08-19T02:54:18;29.50;;;22.45;;
16246;SDS011;8231;50.866;7.944;2022-08-19T02:56:46;25.77;;;20.60;;
16246;SDS011;8231;50.866;7.944;2022-08-19T02:59:15;25.92;;;21.30;;
16246;SDS011;8231;50.866;7.944;2022-08-19T03:01:48;25.58;;;20.70;;
16246;SDS011;8231;50.866;7.944;2022-08-19T03:04:17;23.38;;;19.92;;
16246;SDS011;8231;50.866;7.944;2022-08-19T03:06:46;31.02;;;27.77;;
16246;SDS011;8231;50.866;7.944;2022-08-19T03:09:15;30.73;;;27.52;;
16246;SDS011;8231;50.866;7.944;2022-08-19T03:11:43;32.70;;;29.23;;
16246;SDS011;8231;50.866;7.944;2022-08-19T03:14:15;29.85;;;26.77;;
16246;SDS011;8231;50.866;7.944;2022-08-19T03:16:45;28.98;;;25.55;;
16246;SDS011;8231;50.866;7.944;2022-08-19T03:19:16;31.13;;;27.80;;
16246;SDS011;8231;50.866;7.944;2022-08-19T03:21:45;35.50;;;28.63;;
16246;SDS011;8231;50.866;7.944;2022-08-19T03:24:13;28.70;;;25.73;;
16246;SDS011;8231;50.866;7.944;2022-08-19T03:26:43;32.03;;;28.67;;
16246;SDS011;8231;50.866;7.944;2022-08-19T03:29:17;27.70;;;21.10;;
16246;SDS011;8231;50.866;7.944;2022-08-19T03:31:57;24.70;;;19.48;;
16246;SDS011;8231;50.866;7.944;2022-08-19T03:34:30;25.27;;;20.17;;
16246;SDS011;8231;50.866;7.944;2022-08-19T03:37:03;21.95;;;17.67;;
16246;SDS011;8231;50.866;7.944;2022-08-19T03:39:31;22.63;;;18.63;;
16246;SDS011;8231;50.866;7.944;2022-08-19T03:41:59;27.40;;;20.77;;
16246;SDS011;8231;50.866;7.944;2022-08-19T03:44:50;24.60;;;19.25;;
16246;SDS011;8231;50.866;7.944;2022-08-19T03:47:18;27.42;;;20.67;;
16246;SDS011;8231;50.866;7.944;2022-08-19T03:49:46;27.17;;;21.05;;
16246;SDS011;8231;50.866;7.944;2022-08-19T03:52:14;27.40;;;19.83;;
16246;SDS011;8231;50.866;7.944;2022-08-19T03:54:42;23.90;;;19.85;;
16246;SDS011;8231;50.866;7.944;2022-08-19T03:57:11;25.13;;;19.60;;
16246;SDS011;8231;50.866;7.944;2022-08-19T03:59:39;26.83;;;19.30;;
16246;SDS011;8231;50.866;7.944;2022-08-19T04:02:10;24.85;;;20.63;;
16246;SDS011;8231;50.866;7.944;2022-08-19T04:04:40;29.40;;;21.30;;
16246;SDS011;8231;50.866;7.944;2022-08-19T04:07:10;28.20;;;20.45;;
16246;SDS011;8231;50.866;7.944;2022-08-19T04:09:42;31.60;;;18.63;;
16246;SDS011;8231;50.866;7.944;2022-08-19T04:12:10;27.63;;;20.63;;
16246;SDS011;8231;50.866;7.944;2022-08-19T04:14:38;30.05;;;26.85;;
16246;SDS011;8231;50.866;7.944;2022-08-19T04:17:09;30.42;;;27.25;;
16246;SDS011;8231;50.866;7.944;2022-08-19T04:19:38;30.60;;;27.50;;
16246;SDS011;8231;50.866;7.944;2022-08-19T04:22:06;30.85;;;27.52;;
16246;SDS011;8231;50.866;7.944;2022-08-19T04:24:34;28.80;;;25.83;;
16246;SDS011;8231;50.866;7.944;2022-08-19T04:27:03;30.60;;;27.40;;
16246;SDS011;8231;50.866;7.944;2022-08-19T04:29:32;29.42;;;25.88;;
16246;SDS011;8231;50.866;7.944;2022-08-19T04:32:01;31.20;;;28.00;;
16246;SDS011;8231;50.866;7.944;2022-08-19T04:34:36;29.88;;;25.67;;
16246;SDS011;8231;50.866;7.944;2022-08-19T04:37:25;27.92;;;25.00;;
16246;SDS011;8231;50.866;7.944;2022-08-19T04:40:01;29.90;;;26.40;;
16246;SDS011;8231;50.866;7.944;2022-08-19T04:42:49;23.63;;;18.25;;
16246;SDS011;8231;50.866;7.944;2022-08-19T04:45:18;26.23;;;19.17;;
16246;SDS011;8231;50.866;7.944;2022-08-19T04:47:48;26.27;;;19.17;;
16246;SDS011;8231;50.866;7.944;2022-08-19T04:50:40;28.10;;;25.17;;
16246;SDS011;8231;50.866;7.944;2022-08-19T04:53:10;26.42;;;20.33;;
16246;SDS011;8231;50.866;7.944;2022-08-19T04:55:38;23.92;;;18.20;;
16246;SDS011;8231;50.866;7.944;2022-08-19T04:58:07;27.33;;;19.02;;
16246;SDS011;8231;50.866;7.944;2022-08-19T05:00:37;25.15;;;19.23;;
16246;SDS011;8231;50.866;7.944;2022-08-19T05:03:06;24.02;;;21.00;;
16246;SDS011;8231;50.866;7.944;2022-08-19T05:05:37;26.58;;;20.80;;
16246;SDS011;8231;50.866;7.944;2022-08-19T05:08:11;25.73;;;20.60;;
16246;SDS011;8231;50.866;7.944;2022-08-19T05:10:40;29.67;;;21.52;;
16246;SDS011;8231;50.866;7.944;2022-08-19T05:13:09;30.48;;;27.33;;
16246;SDS011;8231;50.866;7.944;2022-08-19T05:15:37;28.90;;;21.20;;
16246;SDS011;8231;50.866;7.944;2022-08-19T05:18:05;26.85;;;20.85;;
16246;SDS011;8231;50.866;7.944;2022-08-19T05:20:52;24.85;;;19.70;;
16246;SDS011;8231;50.866;7.944;2022-08-19T05:23:38;25.83;;;20.58;;
16246;SDS011;8231;50.866;7.944;2022-08-19T05:26:06;30.77;;;21.33;;
16246;SDS011;8231;50.866;7.944;2022-08-19T05:28:36;34.83;;;20.25;;
16246;SDS011;8231;50.866;7.944;2022-08-19T05:31:04;27.00;;;21.33;;
16246;SDS011;8231;50.866;7.944;2022-08-19T05:33:32;30.02;;;22.85;;
16246;SDS011;8231;50.866;7.944;2022-08-19T05:36:02;24.77;;;21.25;;
16246;SDS011;8231;50.866;7.944;2022-08-19T05:38:31;26.40;;;21.65;;
16246;SDS011;8231;50.866;7.944;2022-08-19T05:40:59;26.92;;;21.42;;
16246;SDS011;8231;50.866;7.944;2022-08-19T05:43:28;30.13;;;23.23;;
16246;SDS011;8231;50.866;7.944;2022-08-19T05:45:57;26.75;;;21.30;;
16246;SDS011;8231;50.866;7.944;2022-08-19T05:48:26;29.58;;;21.25;;
16246;SDS011;8231;50.866;7.944;2022-08-19T05:50:54;23.30;;;20.17;;
16246;SDS011;8231;50.866;7.944;2022-08-19T05:53:24;26.58;;;21.20;;
16246;SDS011;8231;50.866;7.944;2022-08-19T05:55:52;24.73;;;21.85;;
16246;SDS011;8231;50.866;7.944;2022-08-19T05:58:23;26.80;;;23.63;;
16246;SDS011;8231;50.866;7.944;2022-08-19T06:00:53;28.05;;;22.40;;
16246;SDS011;8231;50.866;7.944;2022-08-19T06:03:21;31.55;;;28.55;;
16246;SDS011;8231;50.866;7.944;2022-08-19T06:05:50;34.15;;;25.55;;
16246;SDS011;8231;50.866;7.944;2022-08-19T06:08:21;29.63;;;26.50;;
16246;SDS011;8231;50.866;7.944;2022-08-19T06:11:15;26.23;;;22.42;;
16246;SDS011;8231;50.866;7.944;2022-08-19T06:13:47;29.95;;;23.45;;
16246;SDS011;8231;50.866;7.944;2022-08-19T06:16:26;31.48;;;24.48;;
16246;SDS011;8231;50.866;7.944;2022-08-19T06:18:55;27.45;;;21.98;;
16246;SDS011;8231;50.866;7.944;2022-08-19T06:21:25;26.52;;;22.80;;
16246;SDS011;8231;50.866;7.944;2022-08-19T06:23:55;29.17;;;23.77;;
16246;SDS011;8231;50.866;7.944;2022-08-19T06:26:25;30.15;;;24.63;;
16246;SDS011;8231;50.866;7.944;2022-08-19T06:28:54;30.95;;;26.50;;
16246;SDS011;8231;50.866;7.944;2022-08-19T06:31:23;26.58;;;23.02;;
16246;SDS011;8231;50.866;7.944;2022-08-19T06:33:53;30.90;;;27.90;;
16246;SDS011;8231;50.866;7.944;2022-08-19T06:36:22;30.92;;;27.83;;
16246;SDS011;8231;50.866;7.944;2022-08-19T06:38:53;30.77;;;27.50;;
16246;SDS011;8231;50.866;7.944;2022-08-19T06:41:23;30.55;;;27.63;;
16246;SDS011;8231;50.866;7.944;2022-08-19T06:43:53;30.33;;;27.35;;
16246;SDS011;8231;50.866;7.944;2022-08-19T06:46:21;28.48;;;25.67;;
16246;SDS011;8231;50.866;7.944;2022-08-19T06:48:50;29.77;;;26.80;;
16246;SDS011;8231;50.866;7.944;2022-08-19T06:51:20;28.08;;;25.27;;
16246;SDS011;8231;50.866;7.944;2022-08-19T06:53:51;27.75;;;24.95;;
16246;SDS011;8231;50.866;7.944;2022-08-19T06:56:22;29.38;;;26.50;;
16246;SDS011;8231;50.866;7.944;2022-08-19T06:58:58;27.42;;;24.70;;
16246;SDS011;8231;50.866;7.944;2022-08-19T07:01:26;28.10;;;25.15;;
16246;SDS011;8231;50.866;7.944;2022-08-19T07:03:55;26.13;;;23.58;;
16246;SDS011;8231;50.866;7.944;2022-08-19T07:06:23;25.58;;;23.13;;
16246;SDS011;8231;50.866;7.944;2022-08-19T07:09:10;26.42;;;23.77;;
16246;SDS011;8231;50.866;7.944;2022-08-19T07:11:44;26.75;;;23.95;;
16246;SDS011;8231;50.866;7.944;2022-08-19T07:14:15;25.00;;;22.52;;
16246;SDS011;8231;50.866;7.944;2022-08-19T07:16:45;25.80;;;23.20;;
16246;SDS011;8231;50.866;7.944;2022-08-19T07:19:14;26.15;;;23.65;;
16246;SDS011;8231;50.866;7.944;2022-08-19T07:21:45;25.48;;;22.88;;
16246;SDS011;8231;50.866;7.944;2022-08-19T07:24:14;25.38;;;22.98;;
16246;SDS011;8231;50.866;7.944;2022-08-19T07:26:43;23.75;;;21.15;;
16246;SDS011;8231;50.866;7.944;2022-08-19T07:29:11;21.80;;;19.80;;
16246;SDS011;8231;50.866;7.944;2022-08-19T07:31:41;22.70;;;20.35;;
16246;SDS011;8231;50.866;7.944;2022-08-19T07:34:09;21.88;;;19.63;;
16246;SDS011;8231;50.866;7.944;2022-08-19T07:36:40;20.92;;;19.02;;
16246;SDS011;8231;50.866;7.944;2022-08-19T07:39:10;20.35;;;18.42;;
16246;SDS011;8231;50.866;7.944;2022-08-19T07:41:41;21.10;;;19.13;;
16246;SDS011;8231;50.866;7.944;2022-08-19T07:44:10;20.88;;;18.75;;
16246;SDS011;8231;50.866;7.944;2022-08-19T07:46:39;20.42;;;18.42;;
16246;SDS011;8231;50.866;7.944;2022-08-19T07:49:13;20.65;;;18.13;;
16246;SDS011;8231;50.866;7.944;2022-08-19T07:51:45;20.20;;;18.30;;
16246;SDS011;8231;50.866;7.944;2022-08-19T07:54:15;19.25;;;17.45;;
16246;SDS011;8231;50.866;7.944;2022-08-19T07:56:44;18.17;;;16.52;;
16246;SDS011;8231;50.866;7.944;2022-08-19T07:59:12;18.73;;;16.95;;
16246;SDS011;8231;50.866;7.944;2022-08-19T08:01:41;19.63;;;17.75;;
16246;SDS011;8231;50.866;7.944;2022-08-19T08:04:10;16.55;;;14.95;;
16246;SDS011;8231;50.866;7.944;2022-08-19T08:06:56;15.68;;;14.18;;
16246;SDS011;8231;50.866;7.944;2022-08-19T08:09:42;16.92;;;15.25;;
16246;SDS011;8231;50.866;7.944;2022-08-19T08:12:16;17.00;;;15.45;;
16246;SDS011;8231;50.866;7.944;2022-08-19T08:15:01;17.00;;;15.30;;
16246;SDS011;8231;50.866;7.944;2022-08-19T08:17:35;17.05;;;15.45;;
16246;SDS011;8231;50.866;7.944;2022-08-19T08:20:17;19.63;;;17.88;;
16246;SDS011;8231;50.866;7.944;2022-08-19T08:22:46;18.98;;;17.38;;
16246;SDS011;8231;50.866;7.944;2022-08-19T08:25:33;20.60;;;18.77;;
16246;SDS011;8231;50.866;7.944;2022-08-19T08:28:03;18.90;;;17.27;;
16246;SDS011;8231;50.866;7.944;2022-08-19T08:30:36;16.92;;;15.52;;
16246;SDS011;8231;50.866;7.944;2022-08-19T08:33:12;18.60;;;17.00;;
16246;SDS011;8231;50.866;7.944;2022-08-19T08:35:40;20.75;;;18.65;;
16246;SDS011;8231;50.866;7.944;2022-08-19T08:38:09;19.17;;;17.48;;
16246;SDS011;8231;50.866;7.944;2022-08-19T08:40:38;20.80;;;19.02;;
16246;SDS011;8231;50.866;7.944;2022-08-19T08:43:14;19.25;;;17.48;;
16246;SDS011;8231;50.866;7.944;2022-08-19T08:45:51;20.77;;;18.95;;
16246;SDS011;8231;50.866;7.944;2022-08-19T08:48:24;20.35;;;18.40;;
16246;SDS011;8231;50.866;7.944;2022-08-19T08:51:00;19.25;;;17.65;;
16246;SDS011;8231;50.866;7.944;2022-08-19T08:53:34;20.90;;;19.00;;
16246;SDS011;8231;50.866;7.944;2022-08-19T08:56:08;19.83;;;18.02;;
16246;SDS011;8231;50.866;7.944;2022-08-19T08:58:41;21.13;;;19.25;;
16246;SDS011;8231;50.866;7.944;2022-08-19T09:01:20;19.42;;;17.45;;
16246;SDS011;8231;50.866;7.944;2022-08-19T09:03:50;19.38;;;17.67;;
16246;SDS011;8231;50.866;7.944;2022-08-19T09:06:19;18.67;;;16.92;;
16246;SDS011;8231;50.866;7.944;2022-08-19T09:08:55;19.20;;;17.65;;
16246;SDS011;8231;50.866;7.944;2022-08-19T09:11:42;19.42;;;17.83;;
16246;SDS011;8231;50.866;7.944;2022-08-19T09:14:27;18.25;;;16.75;;
16246;SDS011;8231;50.866;7.944;2022-08-19T09:17:18;14.80;;;13.60;;
16246;SDS011;8231;50.866;7.944;2022-08-19T09:19:56;14.85;;;13.65;;
16246;SDS011;8231;50.866;7.944;2022-08-19T09:22:31;15.27;;;13.90;;
16246;SDS011;8231;50.866;7.944;2022-08-19T09:24:59;13.32;;;12.23;;
16246;SDS011;8231;50.866;7.944;2022-08-19T09:27:28;14.98;;;13.57;;
16246;SDS011;8231;50.866;7.944;2022-08-19T09:30:11;13.48;;;12.27;;
16246;SDS011;8231;50.866;7.944;2022-08-19T09:32:44;12.35;;;11.35;;
16246;SDS011;8231;50.866;7.944;2022-08-19T09:35:19;11.77;;;10.75;;
16246;SDS011;8231;50.866;7.944;2022-08-19T09:37:49;10.25;;;9.45;;
16246;SDS011;8231;50.866;7.944;2022-08-19T09:40:23;10.73;;;9.82;;
16246;SDS011;8231;50.866;7.944;2022-08-19T09:42:56;10.35;;;9.45;;
16246;SDS011;8231;50.866;7.944;2022-08-19T09:45:35;10.15;;;9.23;;
16246;SDS011;8231;50.866;7.944;2022-08-19T09:48:04;10.02;;;8.98;;
16246;SDS011;8231;50.866;7.944;2022-08-19T09:50:33;9.77;;;8.88;;
16246;SDS011;8231;50.866;7.944;2022-08-19T09:53:18;9.25;;;8.55;;
16246;SDS011;8231;50.866;7.944;2022-08-19T09:55:51;9.25;;;8.32;;
16246;SDS011;8231;50.866;7.944;2022-08-19T09:58:19;8.52;;;7.72;;
16246;SDS011;8231;50.866;7.944;2022-08-19T10:00:52;9.50;;;8.60;;
16246;SDS011;8231;50.866;7.944;2022-08-19T10:03:21;8.07;;;7.30;;
16246;SDS011;8231;50.866;7.944;2022-08-19T10:05:57;7.72;;;7.03;;
16246;SDS011;8231;50.866;7.944;2022-08-19T10:08:27;7.18;;;6.63;;
16246;SDS011;8231;50.866;7.944;2022-08-19T10:10:59;6.75;;;6.15;;
16246;SDS011;8231;50.866;7.944;2022-08-19T10:13:48;7.45;;;6.85;;
16246;SDS011;8231;50.866;7.944;2022-08-19T10:16:17;7.45;;;6.78;;
16246;SDS011;8231;50.866;7.944;2022-08-19T10:18:54;6.93;;;6.32;;
16246;SDS011;8231;50.866;7.944;2022-08-19T10:21:26;6.65;;;6.05;;
16246;SDS011;8231;50.866;7.944;2022-08-19T10:23:58;6.35;;;5.78;;
16246;SDS011;8231;50.866;7.944;2022-08-19T10:26:30;7.60;;;7.00;;
16246;SDS011;8231;50.866;7.944;2022-08-19T10:29:00;7.65;;;6.97;;
16246;SDS011;8231;50.866;7.944;2022-08-19T10:31:28;8.32;;;7.55;;
16246;SDS011;8231;50.866;7.944;2022-08-19T10:34:18;7.05;;;6.35;;
16246;SDS011;8231;50.866;7.944;2022-08-19T10:36:55;6.43;;;5.82;;
16246;SDS011;8231;50.866;7.944;2022-08-19T10:39:27;5.75;;;5.25;;
16246;SDS011;8231;50.866;7.944;2022-08-19T10:42:06;6.20;;;5.70;;
16246;SDS011;8231;50.866;7.944;2022-08-19T10:44:36;6.57;;;5.68;;
16246;SDS011;8231;50.866;7.944;2022-08-19T10:47:04;6.20;;;5.70;;
16246;SDS011;8231;50.866;7.944;2022-08-19T10:49:50;7.20;;;6.60;;
16246;SDS011;8231;50.866;7.944;2022-08-19T10:52:39;6.95;;;6.45;;
16246;SDS011;8231;50.866;7.944;2022-08-19T10:55:16;8.13;;;7.43;;
16246;SDS011;8231;50.866;7.944;2022-08-19T10:58:04;8.98;;;8.23;;
16246;SDS011;8231;50.866;7.944;2022-08-19T11:00:36;8.55;;;7.75;;
16246;SDS011;8231;50.866;7.944;2022-08-19T11:03:04;7.93;;;7.25;;
16246;SDS011;8231;50.866;7.944;2022-08-19T11:05:34;8.90;;;7.88;;
16246;SDS011;8231;50.866;7.944;2022-08-19T11:08:07;7.65;;;6.95;;
16246;SDS011;8231;50.866;7.944;2022-08-19T11:10:48;6.45;;;5.85;;
16246;SDS011;8231;50.866;7.944;2022-08-19T11:13:17;7.78;;;6.15;;
16246;SDS011;8231;50.866;7.944;2022-08-19T11:15:45;6.72;;;6.10;;
16246;SDS011;8231;50.866;7.944;2022-08-19T11:18:14;6.75;;;6.25;;
16246;SDS011;8231;50.866;7.944;2022-08-19T11:20:43;6.60;;;5.82;;
16246;SDS011;8231;50.866;7.944;2022-08-19T11:23:12;9.27;;;6.13;;
16246;SDS011;8231;50.866;7.944;2022-08-19T11:25:40;9.90;;;8.95;;
16246;SDS011;8231;50.866;7.944;2022-08-19T11:28:08;8.25;;;7.57;;
16246;SDS011;8231;50.866;7.944;2022-08-19T11:30:37;7.65;;;7.05;;
16246;SDS011;8231;50.866;7.944;2022-08-19T11:33:05;7.60;;;6.80;;
16246;SDS011;8231;50.866;7.944;2022-08-19T11:35:33;6.82;;;6.32;;
16246;SDS011;8231;50.866;7.944;2022-08-19T11:38:05;6.45;;;5.90;;
16246;SDS011;8231;50.866;7.944;2022-08-19T11:40:36;5.82;;;5.13;;
16246;SDS011;8231;50.866;7.944;2022-08-19T11:43:04;6.00;;;5.57;;
16246;SDS011;8231;50.866;7.944;2022-08-19T11:45:33;6.22;;;5.68;;
16246;SDS011;8231;50.866;7.944;2022-08-19T11:48:02;6.60;;;6.10;;
16246;SDS011;8231;50.866;7.944;2022-08-19T11:50:30;6.00;;;5.50;;
16246;SDS011;8231;50.866;7.944;2022-08-19T11:52:58;5.82;;;5.32;;
16246;SDS011;8231;50.866;7.944;2022-08-19T11:55:26;6.07;;;5.18;;
16246;SDS011;8231;50.866;7.944;2022-08-19T11:57:55;5.88;;;5.47;;
16246;SDS011;8231;50.866;7.944;2022-08-19T12:00:24;6.50;;;6.00;;
16246;SDS011;8231;50.866;7.944;2022-08-19T12:02:52;6.53;;;5.53;;
16246;SDS011;8231;50.866;7.944;2022-08-19T12:05:21;5.72;;;5.25;;
16246;SDS011;8231;50.866;7.944;2022-08-19T12:07:49;6.63;;;5.75;;
16246;SDS011;8231;50.866;7.944;2022-08-19T12:10:17;6.53;;;5.45;;
16246;SDS011;8231;50.866;7.944;2022-08-19T12:12:51;8.75;;;5.60;;
16246;SDS011;8231;50.866;7.944;2022-08-19T12:15:25;5.85;;;5.40;;
16246;SDS011;8231;50.866;7.944;2022-08-19T12:18:03;5.88;;;5.38;;
16246;SDS011;8231;50.866;7.944;2022-08-19T12:20:33;6.38;;;5.78;;
16246;SDS011;8231;50.866;7.944;2022-08-19T12:23:02;7.35;;;6.47;;
16246;SDS011;8231;50.866;7.944;2022-08-19T12:25:31;7.53;;;6.10;;
16246;SDS011;8231;50.866;7.944;2022-08-19T12:28:01;5.90;;;5.50;;
16246;SDS011;8231;50.866;7.944;2022-08-19T12:30:31;5.70;;;5.30;;
16246;SDS011;8231;50.866;7.944;2022-08-19T12:32:59;5.40;;;4.95;;
16246;SDS011;8231;50.866;7.944;2022-08-19T12:35:27;5.57;;;5.07;;
16246;SDS011;8231;50.866;7.944;2022-08-19T12:37:56;6.03;;;5.50;;
16246;SDS011;8231;50.866;7.944;2022-08-19T12:40:26;6.35;;;5.85;;
16246;SDS011;8231;50.866;7.944;2022-08-19T12:42:54;6.93;;;5.60;;
16246;SDS011;8231;50.866;7.944;2022-08-19T12:45:22;5.18;;;4.75;;
16246;SDS011;8231;50.866;7.944;2022-08-19T12:47:53;6.00;;;5.50;;
16246;SDS011;8231;50.866;7.944;2022-08-19T12:50:21;6.03;;;5.53;;
16246;SDS011;8231;50.866;7.944;2022-08-19T12:52:49;7.22;;;6.63;;
16246;SDS011;8231;50.866;7.944;2022-08-19T12:55:17;6.85;;;6.28;;
16246;SDS011;8231;50.866;7.944;2022-08-19T12:57:46;6.28;;;5.78;;
16246;SDS011;8231;50.866;7.944;2022-08-19T13:00:16;6.60;;;6.00;;
16246;SDS011;8231;50.866;7.944;2022-08-19T13:02:48;5.80;;;5.35;;
16246;SDS011;8231;50.866;7.944;2022-08-19T13:05:21;5.95;;;5.50;;
16246;SDS011;8231;50.866;7.944;2022-08-19T13:07:51;5.70;;;5.20;;
16246;SDS011;8231;50.866;7.944;2022-08-19T13:10:22;7.13;;;5.90;;
16246;SDS011;8231;50.866;7.944;2022-08-19T13:12:54;5.53;;;5.07;;
16246;SDS011;8231;50.866;7.944;2022-08-19T13:15:22;5.80;;;5.30;;
16246;SDS011;8231;50.866;7.944;2022-08-19T13:17:52;4.88;;;4.40;;
16246;SDS011;8231;50.866;7.944;2022-08-19T13:20:24;5.43;;;5.00;;
16246;SDS011;8231;50.866;7.944;2022-08-19T13:22:53;4.68;;;4.28;;
16246;SDS011;8231;50.866;7.944;2022-08-19T13:25:21;5.03;;;4.63;;
16246;SDS011;8231;50.866;7.944;2022-08-19T13:27:49;7.03;;;6.53;;
16246;SDS011;8231;50.866;7.944;2022-08-19T13:30:18;8.68;;;7.85;;
16246;SDS011;8231;50.866;7.944;2022-08-19T13:33:05;7.95;;;7.20;;
16246;SDS011;8231;50.866;7.944;2022-08-19T13:35:45;8.57;;;7.88;;
16246;SDS011;8231;50.866;7.944;2022-08-19T13:38:16;7.55;;;6.82;;
16246;SDS011;8231;50.866;7.944;2022-08-19T13:40:47;7.30;;;6.57;;
16246;SDS011;8231;50.866;7.944;2022-08-19T13:43:16;7.97;;;7.28;;
16246;SDS011;8231;50.866;7.944;2022-08-19T13:45:49;7.30;;;6.65;;
16246;SDS011;8231;50.866;7.944;2022-08-19T13:48:23;6.47;;;5.88;;
16246;SDS011;8231;50.866;7.944;2022-08-19T13:50:54;9.35;;;6.90;;
16246;SDS011;8231;50.866;7.944;2022-08-19T13:53:23;7.35;;;6.85;;
16246;SDS011;8231;50.866;7.944;2022-08-19T13:55:51;7.57;;;6.97;;
16246;SDS011;8231;50.866;7.944;2022-08-19T13:58:20;7.30;;;6.60;;
16246;SDS011;8231;50.866;7.944;2022-08-19T14:00:48;11.68;;;6.85;;
16246;SDS011;8231;50.866;7.944;2022-08-19T14:03:16;7.32;;;6.72;;
16246;SDS011;8231;50.866;7.944;2022-08-19T14:05:45;7.93;;;7.30;;
16246;SDS011;8231;50.866;7.944;2022-08-19T14:08:15;7.57;;;6.82;;
16246;SDS011;8231;50.866;7.944;2022-08-19T14:10:44;7.70;;;7.05;;
16246;SDS011;8231;50.866;7.944;2022-08-19T14:13:15;8.07;;;7.38;;
16246;SDS011;8231;50.866;7.944;2022-08-19T14:15:44;8.27;;;7.57;;
16246;SDS011;8231;50.866;7.944;2022-08-19T14:18:13;7.18;;;6.68;;
16246;SDS011;8231;50.866;7.944;2022-08-19T14:20:43;6.32;;;5.82;;
16246;SDS011;8231;50.866;7.944;2022-08-19T14:23:11;7.05;;;6.43;;
16246;SDS011;8231;50.866;7.944;2022-08-19T14:25:41;8.07;;;5.82;;
16246;SDS011;8231;50.866;7.944;2022-08-19T14:28:09;5.63;;;5.22;;
16246;SDS011;8231;50.866;7.944;2022-08-19T14:30:37;7.22;;;6.25;;
16246;SDS011;8231;50.866;7.944;2022-08-19T14:33:06;7.07;;;6.40;;
16246;SDS011;8231;50.866;7.944;2022-08-19T14:35:36;6.10;;;5.60;;
16246;SDS011;8231;50.866;7.944;2022-08-19T14:38:04;12.68;;;6.47;;
16246;SDS011;8231;50.866;7.944;2022-08-19T14:40:34;5.97;;;5.43;;
16246;SDS011;8231;50.866;7.944;2022-08-19T14:43:04;5.43;;;4.93;;
16246;SDS011;8231;50.866;7.944;2022-08-19T14:45:33;5.03;;;4.63;;
16246;SDS011;8231;50.866;7.944;2022-08-19T14:48:03;5.03;;;4.70;;
16246;SDS011;8231;50.866;7.944;2022-08-19T14:50:31;5.30;;;4.90;;
16246;SDS011;8231;50.866;7.944;2022-08-19T14:53:00;5.60;;;5.20;;
16246;SDS011;8231;50.866;7.944;2022-08-19T14:55:39;5.78;;;5.38;;
16246;SDS011;8231;50.866;7.944;2022-08-19T14:58:09;6.13;;;5.72;;
16246;SDS011;8231;50.866;7.944;2022-08-19T15:00:56;5.85;;;5.25;;
16246;SDS011;8231;50.866;7.944;2022-08-19T15:03:26;6.60;;;6.10;;
16246;SDS011;8231;50.866;7.944;2022-08-19T15:05:55;5.70;;;5.30;;
16246;SDS011;8231;50.866;7.944;2022-08-19T15:08:24;5.57;;;5.00;;